Terminal Aerodrome Forecast
Issued by NWS Jackson, MS

Home | Current Version | Previous Version | Text Only | Print | Product List | Glossary On
Versions: 1 2 3 4 5 6 7 8 9 10 11 12 13 14 15 16 17 18
000
FTUS44 KJAN 291129
TAFGLH
TAF
KGLH 291129Z 2912/3012 15007KT P6SM SCT015
     FM291700 17009KT P6SM BKN100
     FM292200 16010KT P6SM VCTS BKN050CB
     FM300300 17006KT P6SM OVC100=

USA.gov is the U.S. government's official web portal to all federal, state and local government web resources and services.